KSVE

Susanville Municipal Airport

Susanville, California, USA
METAR KSVE 182235Z AUTO 26003KT 10SM BKN070 OVC100 22/04 A3008 RMK AO2
Observed Flight Rules
Jun-18 @ 22:35 UTC (15 minutes ago) Visual Flight Rules
Wind Visibility Clouds
260° at 3 knots 10 miles
  • Broken at 7,000' AGL
  • Overcast at 10,000' AGL
Temperatures Readings
Current 22°C / 72°F
Dewpoint 4°C / 39°F
Humidity 31%
Altimeter 30.08" Hg
Pressure 1019 hPa
Elevation 1263
METAR KSVE 182235Z AUTO 26003KT 10SM BKN070 OVC100 22/04 A3008 RMK AO2
Observed Flight Rules
Jun-18 @ 22:35 UTC
(15 minutes ago)
VFR
Wind Visibility
260° at 3 knots 10 miles
Clouds
  • Broken at 7,000' AGL
  • Overcast at 10,000' AGL
Temperature Dewpoint
22°C / 72°F 4°C / 39°F
Humidity Altimeter Pressure
31% 30.08" Hg 1019 hPa